createdAt,value
2022-12-01T00:00:40.251Z,959.77
2022-12-01T00:01:40.487Z,959.78
2022-12-01T00:02:40.236Z,959.83
2022-12-01T00:03:40.238Z,959.83
2022-12-01T00:04:40.171Z,959.82
2022-12-01T00:05:40.210Z,959.81
2022-12-01T00:06:40.205Z,959.84
2022-12-01T00:07:40.994Z,959.80
2022-12-01T00:08:40.165Z,959.76
2022-12-01T00:09:40.276Z,959.77
2022-12-01T00:10:40.170Z,959.73
2022-12-01T00:11:40.105Z,959.73
2022-12-01T00:12:40.128Z,959.79
2022-12-01T00:13:40.293Z,959.77
2022-12-01T00:14:40.171Z,959.73
2022-12-01T00:15:40.101Z,959.74
2022-12-01T00:16:40.110Z,959.72
2022-12-01T00:17:40.050Z,959.72
2022-12-01T00:18:40.069Z,959.68
2022-12-01T00:19:40.134Z,959.75
2022-12-01T00:20:39.961Z,959.72
2022-12-01T00:21:40.006Z,959.76
2022-12-01T00:22:39.944Z,959.75
2022-12-01T00:23:39.971Z,959.71
2022-12-01T00:24:39.899Z,959.68
2022-12-01T00:25:40.127Z,959.69
2022-12-01T00:26:39.877Z,959.70
2022-12-01T00:27:39.934Z,959.66
2022-12-01T00:28:39.851Z,959.69
2022-12-01T00:29:39.873Z,959.68
2022-12-01T00:30:39.838Z,959.69
2022-12-01T00:31:40.015Z,959.71
2022-12-01T00:32:39.786Z,959.75
2022-12-01T00:33:39.809Z,959.72
2022-12-01T00:34:39.774Z,959.74
2022-12-01T00:35:39.783Z,959.69
2022-12-01T00:36:39.799Z,959.67
2022-12-01T00:37:39.930Z,959.70
2022-12-01T00:38:39.731Z,959.66
2022-12-01T00:39:39.775Z,959.74
2022-12-01T00:40:39.733Z,959.74
2022-12-01T00:41:39.740Z,959.68
2022-12-01T00:42:39.689Z,959.72
2022-12-01T00:43:39.967Z,959.72
2022-12-01T00:44:39.633Z,959.75
2022-12-01T00:45:39.726Z,959.69
2022-12-01T00:46:39.618Z,959.74
2022-12-01T00:47:39.630Z,959.70
2022-12-01T00:48:39.586Z,959.68
2022-12-01T00:49:39.820Z,959.68
2022-12-01T00:50:39.590Z,959.72
2022-12-01T00:51:39.661Z,959.69
2022-12-01T00:52:39.580Z,959.70
2022-12-01T00:53:39.576Z,959.71
2022-12-01T00:54:39.499Z,959.72
2022-12-01T00:55:39.700Z,959.69
2022-12-01T00:56:39.514Z,959.73
2022-12-01T00:57:39.487Z,959.71
2022-12-01T00:58:39.462Z,959.72
2022-12-01T00:59:39.549Z,959.73
2022-12-01T01:00:39.494Z,959.70
2022-12-01T01:01:39.677Z,959.72
2022-12-01T01:02:39.415Z,959.76
2022-12-01T01:03:39.458Z,959.71
2022-12-01T01:04:39.456Z,959.74
2022-12-01T01:05:39.373Z,959.74
2022-12-01T01:06:39.363Z,959.74
2022-12-01T01:07:39.529Z,959.75
2022-12-01T01:08:39.312Z,959.77
2022-12-01T01:09:39.384Z,959.80
2022-12-01T01:10:39.325Z,959.80
2022-12-01T01:11:39.308Z,959.79
2022-12-01T01:12:39.288Z,959.83
2022-12-01T01:13:39.485Z,959.79
2022-12-01T01:14:39.213Z,959.80
2022-12-01T01:15:39.256Z,959.83
2022-12-01T01:16:39.271Z,959.76
2022-12-01T01:17:39.202Z,959.82
2022-12-01T01:18:39.262Z,959.81
2022-12-01T01:19:39.396Z,959.77
2022-12-01T01:20:39.161Z,959.82
2022-12-01T01:21:39.210Z,959.84
2022-12-01T01:22:39.166Z,959.85
2022-12-01T01:23:39.190Z,959.86
2022-12-01T01:24:39.080Z,959.85
2022-12-01T01:25:39.282Z,959.80
2022-12-01T01:26:39.079Z,959.82
2022-12-01T01:27:39.118Z,959.87
2022-12-01T01:28:39.037Z,959.83
2022-12-01T01:29:39.075Z,959.84
2022-12-01T01:30:39.023Z,959.88
2022-12-01T01:31:39.136Z,959.86
2022-12-01T01:32:39.021Z,959.81
2022-12-01T01:33:38.995Z,959.87
2022-12-01T01:34:38.966Z,959.83
2022-12-01T01:35:38.988Z,959.85
2022-12-01T01:36:38.973Z,959.88
2022-12-01T01:37:39.116Z,959.82
2022-12-01T01:38:38.998Z,959.87
2022-12-01T01:39:38.979Z,959.87
2022-12-01T01:40:38.891Z,959.83
2022-12-01T01:41:38.906Z,959.82
2022-12-01T01:42:38.973Z,959.81
2022-12-01T01:43:39.007Z,959.88
2022-12-01T01:44:38.867Z,959.85
2022-12-01T01:45:38.860Z,959.86
2022-12-01T01:46:38.790Z,959.85
2022-12-01T01:47:38.835Z,959.84
2022-12-01T01:48:38.770Z,959.86
2022-12-01T01:49:39.093Z,959.85
2022-12-01T01:50:39.275Z,959.88
2022-12-01T01:51:38.826Z,959.86
2022-12-01T01:52:38.789Z,959.84
2022-12-01T01:53:38.689Z,959.83
2022-12-01T01:54:38.703Z,959.82
2022-12-01T01:55:38.884Z,959.79
2022-12-01T01:56:38.682Z,959.84
2022-12-01T01:57:38.679Z,959.82
2022-12-01T01:58:38.611Z,959.80
2022-12-01T01:59:38.698Z,959.85
2022-12-01T02:00:38.664Z,959.80
2022-12-01T02:01:39.012Z,959.84
2022-12-01T02:02:38.601Z,959.82
2022-12-01T02:03:38.659Z,959.77
2022-12-01T02:04:38.547Z,959.76
2022-12-01T02:05:38.616Z,959.81
2022-12-01T02:06:38.528Z,959.79
2022-12-01T02:07:38.815Z,959.79
2022-12-01T02:08:38.475Z,959.84
2022-12-01T02:09:38.774Z,959.78
2022-12-01T02:10:38.603Z,959.80
2022-12-01T02:11:38.457Z,959.79
2022-12-01T02:12:38.483Z,959.75
2022-12-01T02:13:38.873Z,959.80
2022-12-01T02:14:38.403Z,959.80
2022-12-01T02:15:38.431Z,959.79
2022-12-01T02:16:38.509Z,959.82
2022-12-01T02:17:41.719Z,959.82
2022-12-01T02:18:38.408Z,959.81
2022-12-01T02:19:38.603Z,959.77
2022-12-01T02:20:38.451Z,959.78
2022-12-01T02:21:38.331Z,959.80
2022-12-01T02:22:38.349Z,959.81
2022-12-01T02:23:38.368Z,959.83
2022-12-01T02:24:38.260Z,959.78
2022-12-01T02:25:38.374Z,959.78
2022-12-01T02:26:38.290Z,959.76
2022-12-01T02:27:38.269Z,959.75
2022-12-01T02:28:38.211Z,959.75
2022-12-01T02:29:38.213Z,959.74
2022-12-01T02:30:38.312Z,959.74
2022-12-01T02:31:38.454Z,959.73
2022-12-01T02:32:38.147Z,959.73
2022-12-01T02:33:38.189Z,959.73
2022-12-01T02:34:38.133Z,959.70
2022-12-01T02:35:38.153Z,959.70
2022-12-01T02:36:38.147Z,959.71
2022-12-01T02:37:38.391Z,959.71
2022-12-01T02:38:38.055Z,959.69
2022-12-01T02:39:38.088Z,959.67
2022-12-01T02:40:38.045Z,959.67
2022-12-01T02:41:38.036Z,959.64
2022-12-01T02:42:37.994Z,959.66
2022-12-01T02:43:38.200Z,959.61
2022-12-01T02:44:37.979Z,959.61
2022-12-01T02:45:37.994Z,959.61
2022-12-01T02:46:37.985Z,959.66
2022-12-01T02:47:37.955Z,959.66
2022-12-01T02:48:37.989Z,959.64
2022-12-01T02:49:38.106Z,959.61
2022-12-01T02:50:37.883Z,959.62
2022-12-01T02:51:37.955Z,959.64
2022-12-01T02:52:37.863Z,959.64
2022-12-01T02:53:37.917Z,959.63
2022-12-01T02:54:37.881Z,959.64
2022-12-01T02:55:38.178Z,959.64
2022-12-01T02:56:37.832Z,959.66
2022-12-01T02:57:37.874Z,959.66
2022-12-01T02:58:37.813Z,959.67
2022-12-01T02:59:37.809Z,959.67
2022-12-01T03:00:37.811Z,959.68
2022-12-01T03:01:38.085Z,959.68
2022-12-01T03:02:38.378Z,959.67
2022-12-01T03:03:37.710Z,959.69
2022-12-01T03:04:37.726Z,959.64
2022-12-01T03:05:37.729Z,959.67
2022-12-01T03:06:37.744Z,959.63
2022-12-01T03:07:37.908Z,959.64
2022-12-01T03:08:37.698Z,959.65
2022-12-01T03:09:37.673Z,959.64
2022-12-01T03:10:37.655Z,959.63
2022-12-01T03:11:37.626Z,959.58
2022-12-01T03:12:37.661Z,959.61
2022-12-01T03:13:37.771Z,959.60
2022-12-01T03:14:37.592Z,959.65
2022-12-01T03:15:37.709Z,959.58
2022-12-01T03:16:37.654Z,959.60
2022-12-01T03:17:38.376Z,959.56
2022-12-01T03:18:37.593Z,959.58
2022-12-01T03:19:37.613Z,959.56
2022-12-01T03:20:37.520Z,959.57
2022-12-01T03:21:37.463Z,959.56
2022-12-01T03:22:37.628Z,959.51
2022-12-01T03:23:37.475Z,959.56
2022-12-01T03:24:37.494Z,959.51
2022-12-01T03:25:37.572Z,959.56
2022-12-01T03:26:37.479Z,959.58
2022-12-01T03:27:37.483Z,959.51
2022-12-01T03:28:37.394Z,959.56
2022-12-01T03:29:37.355Z,959.53
2022-12-01T03:30:37.373Z,959.54
2022-12-01T03:31:38.167Z,959.55
2022-12-01T03:32:37.366Z,959.55
2022-12-01T03:33:37.312Z,959.52
2022-12-01T03:34:37.366Z,959.50
2022-12-01T03:35:37.286Z,959.48
2022-12-01T03:36:38.023Z,959.49
2022-12-01T03:37:37.459Z,959.47
2022-12-01T03:38:37.287Z,959.50
2022-12-01T03:39:37.260Z,959.52
2022-12-01T03:40:37.237Z,959.47
2022-12-01T03:41:37.254Z,959.47
2022-12-01T03:42:37.229Z,959.50
2022-12-01T03:43:37.279Z,959.52
2022-12-01T03:44:37.182Z,959.51
2022-12-01T03:45:37.197Z,959.56
2022-12-01T03:46:37.540Z,959.53
2022-12-01T03:47:37.768Z,959.51
2022-12-01T03:48:38.095Z,959.52
2022-12-01T03:49:37.116Z,959.54
2022-12-01T03:50:37.278Z,959.54
2022-12-01T03:51:38.045Z,959.53
2022-12-01T03:52:37.225Z,959.54
2022-12-01T03:53:37.855Z,959.52
2022-12-01T03:54:37.657Z,959.49
2022-12-01T03:55:37.505Z,959.53
2022-12-01T03:56:37.779Z,959.52
2022-12-01T03:57:37.946Z,959.56
2022-12-01T03:58:37.694Z,959.57
2022-12-01T03:59:38.909Z,959.57
2022-12-01T04:00:37.174Z,959.62
2022-12-01T04:01:37.747Z,959.62
2022-12-01T04:02:37.846Z,959.58
2022-12-01T04:03:36.949Z,959.62
2022-12-01T04:04:37.727Z,959.60
2022-12-01T04:05:37.563Z,959.59
2022-12-01T04:06:37.508Z,959.62
2022-12-01T04:07:37.481Z,959.61
2022-12-01T04:08:37.097Z,959.57
2022-12-01T04:09:37.103Z,959.60
2022-12-01T04:10:37.198Z,959.56
2022-12-01T04:11:37.338Z,959.58
2022-12-01T04:12:37.121Z,959.59
2022-12-01T04:13:37.058Z,959.63
2022-12-01T04:14:37.722Z,959.60
2022-12-01T04:15:37.107Z,959.59
2022-12-01T04:16:37.014Z,959.59
2022-12-01T04:17:37.728Z,959.61
2022-12-01T04:18:37.488Z,959.63
2022-12-01T04:19:37.226Z,959.64
2022-12-01T04:20:37.448Z,959.62
2022-12-01T04:21:37.667Z,959.60
2022-12-01T04:22:36.807Z,959.58
2022-12-01T04:23:37.538Z,959.60
2022-12-01T04:24:37.197Z,959.59
2022-12-01T04:25:37.375Z,959.65
2022-12-01T04:26:36.813Z,959.64
2022-12-01T04:27:37.487Z,959.65
2022-12-01T04:28:36.717Z,959.61
2022-12-01T04:29:37.494Z,959.61
2022-12-01T04:30:37.299Z,959.63
2022-12-01T04:31:37.548Z,959.64
2022-12-01T04:32:37.165Z,959.66
2022-12-01T04:33:37.365Z,959.69
2022-12-01T04:34:37.102Z,959.65
2022-12-01T04:35:36.784Z,959.71
2022-12-01T04:36:37.425Z,959.71
2022-12-01T04:37:37.006Z,959.72
2022-12-01T04:38:37.254Z,959.74
2022-12-01T04:39:37.118Z,959.70
2022-12-01T04:40:37.355Z,959.73
2022-12-01T04:41:36.928Z,959.74
2022-12-01T04:42:37.128Z,959.76
2022-12-01T04:43:37.256Z,959.77
2022-12-01T04:44:36.560Z,959.75
2022-12-01T04:45:36.305Z,959.78
2022-12-01T04:46:36.392Z,959.78
2022-12-01T04:47:36.570Z,959.80
2022-12-01T04:48:36.319Z,959.79
2022-12-01T04:49:36.295Z,959.75
2022-12-01T04:50:36.261Z,959.78
2022-12-01T04:51:36.251Z,959.80
2022-12-01T04:52:36.243Z,959.81
2022-12-01T04:53:36.905Z,959.78
2022-12-01T04:54:36.206Z,959.78
2022-12-01T04:55:36.269Z,959.84
2022-12-01T04:56:36.188Z,959.80
2022-12-01T04:57:36.179Z,959.80
2022-12-01T04:58:36.228Z,959.79
2022-12-01T04:59:36.272Z,959.78
2022-12-01T05:00:36.206Z,959.83
2022-12-01T05:01:36.208Z,959.85
2022-12-01T05:02:36.097Z,959.85
2022-12-01T05:03:36.110Z,959.83
2022-12-01T05:04:36.089Z,959.84
2022-12-01T05:05:36.245Z,959.77
2022-12-01T05:06:36.070Z,959.82
2022-12-01T05:07:36.271Z,959.78
2022-12-01T05:08:36.016Z,959.82
2022-12-01T05:09:36.019Z,959.83
2022-12-01T05:10:35.996Z,959.81
2022-12-01T05:11:36.095Z,959.80
2022-12-01T05:12:36.044Z,959.79
2022-12-01T05:13:35.962Z,959.80
2022-12-01T05:14:36.005Z,959.82
2022-12-01T05:15:35.906Z,959.83
2022-12-01T05:16:36.049Z,959.80
2022-12-01T05:17:37.202Z,959.82
2022-12-01T05:18:35.963Z,959.81
2022-12-01T05:19:35.886Z,959.81
2022-12-01T05:20:35.892Z,959.84
2022-12-01T05:21:35.867Z,959.84
2022-12-01T05:23:03.894Z,959.83
2022-12-01T05:23:37.754Z,959.87
2022-12-01T05:24:35.825Z,959.84
2022-12-01T05:25:35.811Z,959.85
2022-12-01T05:26:35.782Z,959.89
2022-12-01T05:27:35.742Z,959.85
2022-12-01T05:28:35.752Z,959.87
2022-12-01T05:29:35.900Z,959.87
2022-12-01T05:30:35.723Z,959.89
2022-12-01T05:31:35.736Z,959.89
2022-12-01T05:32:35.781Z,959.86
2022-12-01T05:33:35.670Z,959.84
2022-12-01T05:34:35.734Z,959.89
2022-12-01T05:35:35.855Z,959.91
2022-12-01T05:36:35.647Z,959.93
2022-12-01T05:37:35.639Z,959.91
2022-12-01T05:38:35.606Z,959.94
2022-12-01T05:39:35.701Z,959.90
2022-12-01T05:40:35.598Z,959.94
2022-12-01T05:41:35.701Z,959.98
2022-12-01T05:42:35.554Z,959.97
2022-12-01T05:43:35.588Z,959.92
2022-12-01T05:44:36.289Z,959.93
2022-12-01T05:45:35.553Z,959.98
2022-12-01T05:46:35.525Z,959.98
2022-12-01T05:47:35.630Z,959.95
2022-12-01T05:48:35.479Z,959.94
2022-12-01T05:49:35.476Z,959.96
2022-12-01T05:50:35.440Z,959.91
2022-12-01T05:51:35.409Z,959.89
2022-12-01T05:52:35.424Z,959.96
2022-12-01T05:53:35.591Z,959.90
2022-12-01T05:54:35.429Z,959.88
2022-12-01T05:55:36.371Z,959.93
2022-12-01T05:56:35.358Z,959.90
2022-12-01T05:57:36.127Z,959.88
2022-12-01T05:58:35.375Z,959.91
2022-12-01T05:59:36.583Z,959.88
2022-12-01T06:00:37.560Z,959.91
2022-12-01T06:01:35.400Z,959.88
2022-12-01T06:02:35.337Z,959.85
2022-12-01T06:03:35.251Z,959.91
2022-12-01T06:04:35.361Z,959.92
2022-12-01T06:05:35.312Z,959.96
2022-12-01T06:06:35.225Z,959.99
2022-12-01T06:07:35.246Z,959.97
2022-12-01T06:08:35.213Z,959.99
2022-12-01T06:09:35.406Z,959.94
2022-12-01T06:10:35.171Z,959.95
2022-12-01T06:11:35.233Z,959.99
2022-12-01T06:12:35.141Z,959.94
2022-12-01T06:13:35.322Z,960.00
2022-12-01T06:14:35.341Z,959.95
2022-12-01T06:15:35.081Z,959.98
2022-12-01T06:16:35.156Z,959.99
2022-12-01T06:17:39.967Z,959.98
2022-12-01T06:18:36.146Z,959.98
2022-12-01T06:19:35.065Z,960.04
2022-12-01T06:20:35.017Z,960.00
2022-12-01T06:21:35.028Z,959.99
2022-12-01T06:22:35.003Z,960.04
2022-12-01T06:23:35.371Z,960.04
2022-12-01T06:24:35.069Z,960.02
2022-12-01T06:25:34.934Z,960.06
2022-12-01T06:26:34.951Z,960.03
2022-12-01T06:27:34.901Z,959.99
2022-12-01T06:28:34.926Z,960.02
2022-12-01T06:29:40.610Z,960.05
2022-12-01T06:30:35.977Z,960.01
2022-12-01T06:31:34.876Z,960.06
2022-12-01T06:32:34.865Z,960.09
2022-12-01T06:33:34.850Z,960.06
2022-12-01T06:34:34.844Z,960.08
2022-12-01T06:35:35.013Z,960.09
2022-12-01T06:36:34.842Z,960.10
2022-12-01T06:37:34.778Z,960.04
2022-12-01T06:38:34.828Z,960.03
2022-12-01T06:39:34.760Z,960.06
2022-12-01T06:40:34.744Z,960.08
2022-12-01T06:41:34.974Z,960.07
2022-12-01T06:42:34.785Z,960.07
2022-12-01T06:43:34.683Z,960.09
2022-12-01T06:44:34.701Z,960.12
2022-12-01T06:45:34.729Z,960.14
2022-12-01T06:46:34.740Z,960.11
2022-12-01T06:47:34.777Z,960.14
2022-12-01T06:48:34.678Z,960.14
2022-12-01T06:49:34.636Z,960.18
2022-12-01T06:50:34.628Z,960.20
2022-12-01T06:51:34.562Z,960.18
2022-12-01T06:52:34.582Z,960.21
2022-12-01T06:53:34.677Z,960.23
2022-12-01T06:54:34.615Z,960.25
2022-12-01T06:55:34.521Z,960.21
2022-12-01T06:56:34.528Z,960.21
2022-12-01T06:57:34.502Z,960.23
2022-12-01T06:58:34.552Z,960.25
2022-12-01T06:59:34.628Z,960.28
2022-12-01T07:00:34.585Z,960.25
2022-12-01T07:01:34.459Z,960.28
2022-12-01T07:02:34.454Z,960.27
2022-12-01T07:03:34.407Z,960.29
2022-12-01T07:04:34.446Z,960.30
2022-12-01T07:05:34.505Z,960.30
2022-12-01T07:06:34.666Z,960.31
2022-12-01T07:07:34.436Z,960.33
2022-12-01T07:08:34.387Z,960.30
2022-12-01T07:09:34.352Z,960.32
2022-12-01T07:10:34.354Z,960.34
2022-12-01T07:11:34.349Z,960.37
2022-12-01T07:12:34.459Z,960.39
2022-12-01T07:13:34.375Z,960.34
2022-12-01T07:14:34.281Z,960.38
2022-12-01T07:15:34.334Z,960.39
2022-12-01T07:16:34.330Z,960.36
2022-12-01T07:17:34.275Z,960.43
2022-12-01T07:18:34.567Z,960.38
2022-12-01T07:19:34.248Z,960.41
2022-12-01T07:20:34.173Z,960.42
2022-12-01T07:21:34.196Z,960.41
2022-12-01T07:22:34.159Z,960.41
2022-12-01T07:23:34.173Z,960.37
2022-12-01T07:24:34.853Z,960.39
2022-12-01T07:25:34.162Z,960.37
2022-12-01T07:26:34.115Z,960.39
2022-12-01T07:27:34.102Z,960.41
2022-12-01T07:28:34.063Z,960.41
2022-12-01T07:29:34.129Z,960.40
2022-12-01T07:30:34.277Z,960.41
2022-12-01T07:31:34.105Z,960.35
2022-12-01T07:32:34.044Z,960.40
2022-12-01T07:33:34.064Z,960.44
2022-12-01T07:34:34.035Z,960.44
2022-12-01T07:35:34.019Z,960.41
2022-12-01T07:36:34.116Z,960.41
2022-12-01T07:37:34.056Z,960.41
2022-12-01T07:38:33.928Z,960.46
2022-12-01T07:39:33.966Z,960.44
2022-12-01T07:40:33.914Z,960.42
2022-12-01T07:41:33.957Z,960.42
2022-12-01T07:42:34.167Z,960.44
2022-12-01T07:43:33.986Z,960.45
2022-12-01T07:44:33.859Z,960.50
2022-12-01T07:45:33.844Z,960.48
2022-12-01T07:46:33.972Z,960.53
2022-12-01T07:47:33.828Z,960.48
2022-12-01T07:48:34.081Z,960.51
2022-12-01T07:49:33.818Z,960.49
2022-12-01T07:50:33.772Z,960.55
2022-12-01T07:51:33.818Z,960.51
2022-12-01T07:52:33.735Z,960.52
2022-12-01T07:53:33.778Z,960.55
2022-12-01T07:54:33.882Z,960.57
2022-12-01T07:55:33.704Z,960.55
2022-12-01T07:56:33.704Z,960.50
2022-12-01T07:57:33.696Z,960.56
2022-12-01T07:58:33.683Z,960.54
2022-12-01T07:59:33.684Z,960.54
2022-12-01T08:00:33.744Z,960.57
2022-12-01T08:01:33.722Z,960.55
2022-12-01T08:02:33.653Z,960.57
2022-12-01T08:03:33.703Z,960.54
2022-12-01T08:04:33.569Z,960.58
2022-12-01T08:05:33.583Z,960.58
2022-12-01T08:06:34.141Z,960.58
2022-12-01T08:07:33.613Z,960.60
2022-12-01T08:08:33.543Z,960.58
2022-12-01T08:09:33.541Z,960.58
2022-12-01T08:10:33.496Z,960.60
2022-12-01T08:11:33.536Z,960.60
2022-12-01T08:12:33.585Z,960.60
2022-12-01T08:13:33.533Z,960.55
2022-12-01T08:14:33.462Z,960.60
2022-12-01T08:15:34.276Z,960.52
2022-12-01T08:16:33.419Z,960.50
2022-12-01T08:17:33.423Z,960.54
2022-12-01T08:18:34.279Z,960.52
2022-12-01T08:19:33.414Z,960.51
2022-12-01T08:20:33.394Z,960.51
2022-12-01T08:21:33.359Z,960.53
2022-12-01T08:22:33.442Z,960.55
2022-12-01T08:23:33.328Z,960.56
2022-12-01T08:24:33.480Z,960.55
2022-12-01T08:25:33.377Z,960.59
2022-12-01T08:26:33.267Z,960.53
2022-12-01T08:27:33.445Z,960.52
2022-12-01T08:28:33.369Z,960.56
2022-12-01T08:29:33.289Z,960.56
2022-12-01T08:30:33.436Z,960.49
2022-12-01T08:31:33.454Z,960.48
2022-12-01T08:32:34.208Z,960.51
2022-12-01T08:33:35.741Z,960.48
2022-12-01T08:34:33.357Z,960.46
2022-12-01T08:35:33.316Z,960.50
2022-12-01T08:36:33.337Z,960.51
2022-12-01T08:37:33.895Z,960.50
2022-12-01T08:38:33.288Z,960.53
2022-12-01T08:39:33.291Z,960.52
2022-12-01T08:40:33.299Z,960.53
2022-12-01T08:41:33.384Z,960.52
2022-12-01T08:42:33.815Z,960.52
2022-12-01T08:44:34.046Z,960.54
2022-12-01T08:45:33.407Z,960.55
2022-12-01T08:46:33.501Z,960.55
2022-12-01T08:47:33.783Z,960.56
2022-12-01T08:48:33.282Z,960.55
2022-12-01T08:49:33.925Z,960.55
2022-12-01T08:50:33.022Z,960.56
2022-12-01T08:51:33.040Z,960.58
2022-12-01T08:52:33.135Z,960.55
2022-12-01T08:53:32.978Z,960.56
2022-12-01T08:54:33.059Z,960.54
2022-12-01T08:55:33.032Z,960.54
2022-12-01T08:56:32.977Z,960.57
2022-12-01T08:57:33.048Z,960.55
2022-12-01T08:58:32.989Z,960.58
2022-12-01T08:59:33.817Z,960.60
2022-12-01T09:00:33.890Z,960.61
2022-12-01T09:01:33.293Z,960.56
2022-12-01T09:02:33.185Z,960.55
2022-12-01T09:03:33.728Z,960.61
2022-12-01T09:04:33.109Z,960.55
2022-12-01T09:05:33.162Z,960.57
2022-12-01T09:06:33.206Z,960.53
2022-12-01T09:07:33.187Z,960.61
2022-12-01T09:08:33.017Z,960.58
2022-12-01T09:09:33.070Z,960.62
2022-12-01T09:10:32.831Z,960.61
2022-12-01T09:11:33.090Z,960.60
2022-12-01T09:12:33.185Z,960.63
2022-12-01T09:13:33.008Z,960.63
2022-12-01T09:14:33.127Z,960.62
2022-12-01T09:15:33.138Z,960.58
2022-12-01T09:16:33.270Z,960.63
2022-12-01T09:17:33.209Z,960.64
2022-12-01T09:18:33.211Z,960.64
2022-12-01T09:19:33.222Z,960.70
2022-12-01T09:20:33.188Z,960.62
2022-12-01T09:21:32.998Z,960.67
2022-12-01T09:22:33.449Z,960.62
2022-12-01T09:23:33.243Z,960.71
2022-12-01T09:24:33.228Z,960.70
2022-12-01T09:25:33.464Z,960.69
2022-12-01T09:26:33.106Z,960.71
2022-12-01T09:27:33.006Z,960.70
2022-12-01T09:28:33.303Z,960.64
2022-12-01T09:29:32.946Z,960.69
2022-12-01T09:30:33.137Z,960.68
2022-12-01T09:31:33.321Z,960.68
2022-12-01T09:32:32.348Z,960.68
2022-12-01T09:33:32.390Z,960.69
2022-12-01T09:34:32.324Z,960.67
2022-12-01T09:35:32.322Z,960.71
2022-12-01T09:36:33.805Z,960.72
2022-12-01T09:37:32.321Z,960.69
2022-12-01T09:38:32.258Z,960.72
2022-12-01T09:39:32.263Z,960.75
2022-12-01T09:40:32.271Z,960.70
2022-12-01T09:41:32.250Z,960.72
2022-12-01T09:42:35.355Z,960.72
2022-12-01T09:43:32.249Z,960.74
2022-12-01T09:44:32.168Z,960.68
2022-12-01T09:45:32.240Z,960.67
2022-12-01T09:46:32.185Z,960.71
2022-12-01T09:47:32.277Z,960.67
2022-12-01T09:48:32.451Z,960.70
2022-12-01T09:49:32.148Z,960.70
2022-12-01T09:50:32.152Z,960.69
2022-12-01T09:51:32.141Z,960.71
2022-12-01T09:52:32.118Z,960.69
2022-12-01T09:53:32.086Z,960.71
2022-12-01T09:54:32.238Z,960.72
2022-12-01T09:55:32.124Z,960.74
2022-12-01T09:56:32.004Z,960.68
2022-12-01T09:57:32.084Z,960.65
2022-12-01T09:58:31.983Z,960.73
2022-12-01T09:59:32.008Z,960.74
2022-12-01T10:00:32.207Z,960.69
2022-12-01T10:01:32.053Z,960.63
2022-12-01T10:02:32.019Z,960.67
2022-12-01T10:03:31.973Z,960.62
2022-12-01T10:04:31.914Z,960.66
2022-12-01T10:05:31.956Z,960.66
2022-12-01T10:06:32.183Z,960.60
2022-12-01T10:07:31.973Z,960.60
2022-12-01T10:08:31.920Z,960.59
2022-12-01T10:09:31.908Z,960.58
2022-12-01T10:10:31.859Z,960.60
2022-12-01T10:11:31.878Z,960.54
2022-12-01T10:12:31.924Z,960.56
2022-12-01T10:13:31.903Z,960.57
2022-12-01T10:14:31.827Z,960.56
2022-12-01T10:15:31.831Z,960.56
2022-12-01T10:16:31.918Z,960.52
2022-12-01T10:17:31.822Z,960.52
2022-12-01T10:18:31.881Z,960.53
2022-12-01T10:19:31.707Z,960.53
2022-12-01T10:20:32.852Z,960.46
2022-12-01T10:21:31.709Z,960.46
2022-12-01T10:22:31.783Z,960.44
2022-12-01T10:23:31.679Z,960.44
2022-12-01T10:24:31.824Z,960.40
2022-12-01T10:25:31.777Z,960.40
2022-12-01T10:26:31.680Z,960.41
2022-12-01T10:27:31.654Z,960.39
2022-12-01T10:28:31.809Z,960.36
2022-12-01T10:29:31.779Z,960.36
2022-12-01T10:30:31.776Z,960.38
2022-12-01T10:31:31.697Z,960.34
2022-12-01T10:32:31.519Z,960.34
2022-12-01T10:33:31.655Z,960.32
2022-12-01T10:34:31.581Z,960.32
2022-12-01T10:35:31.713Z,960.33
2022-12-01T10:36:31.724Z,960.30
2022-12-01T10:37:31.549Z,960.29
2022-12-01T10:38:31.426Z,960.30
2022-12-01T10:39:31.511Z,960.28
2022-12-01T10:40:32.676Z,960.25
2022-12-01T10:41:31.399Z,960.24
2022-12-01T10:42:31.478Z,960.29
2022-12-01T10:43:31.415Z,960.23
2022-12-01T10:44:31.347Z,960.23
2022-12-01T10:45:32.154Z,960.24
2022-12-01T10:46:31.468Z,960.24
2022-12-01T10:47:31.399Z,960.22
2022-12-01T10:48:31.365Z,960.22
2022-12-01T10:49:31.396Z,960.26
2022-12-01T10:50:31.564Z,960.22
2022-12-01T10:51:31.623Z,960.21
2022-12-01T10:52:31.384Z,960.21
2022-12-01T10:53:31.292Z,960.22
2022-12-01T10:54:31.240Z,960.19
2022-12-01T10:55:31.470Z,960.23
2022-12-01T10:56:31.215Z,960.20
2022-12-01T10:57:31.227Z,960.18
2022-12-01T10:58:31.252Z,960.18
2022-12-01T10:59:31.188Z,960.19
2022-12-01T11:01:32.420Z,960.18
2022-12-01T11:02:31.401Z,960.20
2022-12-01T11:03:31.304Z,960.21
2022-12-01T11:04:31.231Z,960.18
2022-12-01T11:05:31.130Z,960.18
2022-12-01T11:06:31.073Z,960.16
2022-12-01T11:07:31.086Z,960.17
2022-12-01T11:08:31.020Z,960.16
2022-12-01T11:09:31.042Z,960.12
2022-12-01T11:10:31.080Z,960.14
2022-12-01T11:11:31.153Z,960.11
2022-12-01T11:12:30.988Z,960.05
2022-12-01T11:13:31.004Z,960.11
2022-12-01T11:14:30.983Z,960.06
2022-12-01T11:15:30.943Z,960.09
2022-12-01T11:16:31.137Z,960.07
2022-12-01T11:17:30.918Z,960.05
2022-12-01T11:18:30.908Z,960.10
2022-12-01T11:19:30.923Z,960.08
2022-12-01T11:20:30.876Z,960.13
2022-12-01T11:21:30.875Z,960.08
2022-12-01T11:22:30.949Z,960.07
2022-12-01T11:23:30.874Z,960.10
2022-12-01T11:24:30.818Z,960.06
2022-12-01T11:25:30.805Z,960.09
2022-12-01T11:26:30.787Z,960.11
2022-12-01T11:27:30.755Z,960.06
2022-12-01T11:28:31.013Z,960.04
2022-12-01T11:29:30.730Z,960.00
2022-12-01T11:30:30.773Z,960.07
2022-12-01T11:31:30.758Z,960.02
2022-12-01T11:32:30.719Z,960.05
2022-12-01T11:33:30.723Z,960.03
2022-12-01T11:34:30.846Z,960.01
2022-12-01T11:35:30.679Z,960.04
2022-12-01T11:36:30.692Z,959.96
2022-12-01T11:37:30.662Z,959.95
2022-12-01T11:38:30.766Z,959.98
2022-12-01T11:39:30.633Z,960.00
2022-12-01T11:40:30.753Z,960.06
2022-12-01T11:41:30.560Z,960.03
2022-12-01T11:42:30.688Z,960.03
2022-12-01T11:43:30.542Z,960.01
2022-12-01T11:45:31.724Z,960.06
2022-12-01T11:46:30.557Z,960.06
2022-12-01T11:47:30.540Z,960.06
2022-12-01T11:48:30.552Z,960.03
2022-12-01T11:49:30.489Z,960.01
2022-12-01T11:50:30.531Z,960.04
2022-12-01T11:51:30.522Z,960.03
2022-12-01T11:52:30.438Z,960.00
2022-12-01T11:53:30.417Z,960.03
2022-12-01T11:54:30.427Z,960.06
2022-12-01T11:55:30.396Z,960.05
2022-12-01T11:56:30.387Z,960.04
2022-12-01T11:57:34.770Z,960.04
2022-12-01T11:58:30.594Z,960.07
2022-12-01T11:59:30.325Z,960.06
2022-12-01T12:00:30.509Z,960.04
2022-12-01T12:01:31.054Z,960.01
2022-12-01T12:02:30.351Z,960.07
2022-12-01T12:03:30.498Z,960.02
2022-12-01T12:04:30.273Z,960.05
2022-12-01T12:05:30.225Z,960.05
2022-12-01T12:06:45.760Z,960.05
2022-12-01T12:07:31.308Z,960.00
2022-12-01T12:08:30.296Z,960.06
2022-12-01T12:09:30.375Z,960.09
2022-12-01T12:10:30.231Z,960.04
2022-12-01T12:11:30.194Z,960.07
2022-12-01T12:12:30.201Z,960.08
2022-12-01T12:13:30.129Z,960.05
2022-12-01T12:14:30.140Z,960.10
2022-12-01T12:15:30.180Z,960.06
2022-12-01T12:16:32.047Z,960.07
2022-12-01T12:17:30.225Z,960.06
2022-12-01T12:18:30.107Z,960.07
2022-12-01T12:19:34.377Z,960.08
2022-12-01T12:20:31.124Z,960.03
2022-12-01T12:21:30.028Z,960.08
2022-12-01T12:22:30.027Z,960.03
2022-12-01T12:23:29.991Z,960.06
2022-12-01T12:24:30.016Z,960.03
2022-12-01T12:25:29.948Z,960.01
2022-12-01T12:26:30.051Z,960.04
2022-12-01T12:27:29.993Z,960.03
2022-12-01T12:28:29.966Z,960.07
2022-12-01T12:29:29.983Z,960.04
2022-12-01T12:30:30.068Z,960.04
2022-12-01T12:31:29.886Z,960.05